Time;durP1;ratioP1;P1;durP2;ratioP2;P2;SDS_P1;SDS_P2;PMS_P1;PMS_P2;Temp;Humidity;BMP_temperature;BMP_pressure;BME280_temperature;BME280_humidity;BME280_pressure;Samples;Min_cycle;Max_cycle;Signal;HPM_P1;HPM_P2
2021/08/15 00:02:09;;;;;;;22.10;7.63;;;15.50;99.90;;;;;;4900678;29;20029;-57
2021/08/15 00:04:35;;;;;;;24.10;7.38;;;15.40;99.90;;;;;;4899040;29;20131;-52
2021/08/15 00:07:00;;;;;;;15.70;7.10;;;15.40;99.90;;;;;;4895575;29;20220;-52
2021/08/15 00:09:26;;;;;;;15.25;6.70;;;15.30;99.90;;;;;;4858545;29;20041;-56
2021/08/15 00:11:51;;;;;;;14.35;7.10;;;15.30;99.90;;;;;;4898884;29;20028;-58
2021/08/15 00:14:17;;;;;;;15.10;6.43;;;15.20;99.90;;;;;;4899412;29;20021;-56
2021/08/15 00:16:42;;;;;;;13.32;6.75;;;15.20;99.90;;;;;;4902521;29;20147;-57
2021/08/15 00:19:08;;;;;;;15.80;7.28;;;15.20;99.90;;;;;;4898334;29;20033;-58
2021/08/15 00:21:35;;;;;;;17.42;7.18;;;15.10;99.90;;;;;;4898993;29;20050;-55
2021/08/15 00:24:01;;;;;;;15.18;7.63;;;15.10;99.90;;;;;;4899895;29;20036;-57
2021/08/15 00:26:27;;;;;;;16.98;7.38;;;15.00;99.90;;;;;;4899402;29;20115;-54
2021/08/15 00:28:53;;;;;;;13.98;7.25;;;14.90;99.90;;;;;;4900365;29;20119;-54
2021/08/15 00:31:18;;;;;;;13.15;6.78;;;14.90;99.90;;;;;;4902700;29;20028;-57
2021/08/15 00:33:44;;;;;;;14.13;7.47;;;14.80;99.90;;;;;;4900450;29;20494;-55
2021/08/15 00:36:10;;;;;;;16.65;7.38;;;14.90;99.90;;;;;;4903829;29;20025;-53
2021/08/15 00:38:35;;;;;;;15.18;7.72;;;14.80;99.90;;;;;;4910045;29;20024;-56
2021/08/15 00:41:01;;;;;;;15.93;7.28;;;14.80;99.90;;;;;;4911944;29;20411;-55
2021/08/15 00:43:30;;;;;;;17.95;7.25;;;14.70;99.90;;;;;;4910364;29;20036;-58
2021/08/15 00:45:56;;;;;;;18.90;7.30;;;14.70;99.90;;;;;;4906610;29;20040;-56
2021/08/15 00:48:22;;;;;;;16.40;7.93;;;14.80;99.90;;;;;;4908023;29;20373;-55
2021/08/15 00:50:48;;;;;;;17.23;7.72;;;14.70;99.90;;;;;;4908570;29;20039;-58
2021/08/15 00:53:13;;;;;;;15.75;7.72;;;14.70;99.90;;;;;;4908889;29;20461;-56
2021/08/15 00:55:39;;;;;;;15.50;7.15;;;14.70;99.90;;;;;;4910139;29;20068;-56
2021/08/15 00:58:08;;;;;;;21.48;8.32;;;14.70;99.90;;;;;;4906464;29;20024;-57
2021/08/15 01:00:37;;;;;;;16.23;7.95;;;14.60;99.90;;;;;;4909238;29;20481;-56
2021/08/15 01:03:02;;;;;;;11.80;7.10;;;14.60;99.90;;;;;;4904635;29;20043;-57
2021/08/15 01:05:31;;;;;;;17.33;7.75;;;14.60;99.90;;;;;;4908253;29;20047;-55
2021/08/15 01:07:58;;;;;;;14.13;7.50;;;14.50;99.90;;;;;;4909083;29;20114;-55
2021/08/15 01:10:24;;;;;;;18.38;8.48;;;14.50;99.90;;;;;;4903299;29;20407;-56
2021/08/15 01:12:50;;;;;;;12.80;7.30;;;14.50;99.90;;;;;;4905929;29;20032;-56
2021/08/15 01:15:16;;;;;;;14.25;6.88;;;14.50;99.90;;;;;;4893857;29;20047;-57
2021/08/15 01:17:43;;;;;;;16.40;7.82;;;14.40;99.90;;;;;;4906775;29;20039;-56
2021/08/15 01:20:10;;;;;;;15.88;8.15;;;14.40;99.90;;;;;;4910839;29;20116;-51
2021/08/15 01:22:41;;;;;;;15.45;8.30;;;14.40;99.90;;;;;;4909429;29;20486;-56
2021/08/15 01:25:07;;;;;;;17.58;9.18;;;14.40;99.90;;;;;;4906841;29;20096;-57
2021/08/15 01:27:43;;;;;;;19.48;8.65;;;14.40;99.90;;;;;;4899452;29;20088;-56
2021/08/15 01:30:11;;;;;;;15.15;8.25;;;14.30;99.90;;;;;;4904686;29;20027;-56
2021/08/15 01:32:42;;;;;;;24.05;8.88;;;14.30;99.90;;;;;;4905159;29;20132;-57
2021/08/15 01:35:09;;;;;;;20.30;8.48;;;14.30;99.90;;;;;;4907853;29;20099;-56
2021/08/15 01:37:34;;;;;;;16.25;8.10;;;14.20;99.90;;;;;;4908076;29;20052;-57
2021/08/15 01:40:02;;;;;;;16.50;8.98;;;14.20;99.90;;;;;;4907127;29;20555;-57
2021/08/15 01:42:29;;;;;;;17.77;9.02;;;14.30;99.90;;;;;;4898094;29;20036;-55
2021/08/15 01:44:55;;;;;;;15.82;8.13;;;14.20;99.90;;;;;;4908696;29;20024;-56
2021/08/15 01:47:20;;;;;;;19.83;8.45;;;14.20;99.90;;;;;;4909280;29;20515;-58
2021/08/15 01:49:46;;;;;;;21.08;9.23;;;14.20;99.90;;;;;;4906234;29;20024;-58
2021/08/15 01:52:11;;;;;;;20.70;8.85;;;14.20;99.90;;;;;;4906016;29;20042;-58
2021/08/15 01:54:37;;;;;;;20.27;9.30;;;14.20;99.90;;;;;;4899618;29;20025;-57
2021/08/15 01:57:03;;;;;;;20.13;9.43;;;14.20;99.90;;;;;;4902985;29;20034;-55
2021/08/15 01:59:28;;;;;;;18.10;8.30;;;14.20;99.90;;;;;;4903461;29;20040;-52
2021/08/15 02:01:55;;;;;;;17.30;8.15;;;14.20;99.90;;;;;;4908588;29;20369;-53
2021/08/15 02:04:22;;;;;;;17.13;8.95;;;14.20;99.90;;;;;;4902729;29;20056;-57
2021/08/15 02:06:49;;;;;;;18.13;8.60;;;14.20;99.90;;;;;;4902100;29;20099;-55
2021/08/15 02:09:14;;;;;;;16.48;8.18;;;14.20;99.90;;;;;;4904584;29;20452;-54
2021/08/15 02:11:40;;;;;;;32.42;9.70;;;14.20;99.90;;;;;;4904557;29;20036;-56
2021/08/15 02:14:05;;;;;;;16.65;8.23;;;14.20;99.90;;;;;;4907656;29;20086;-53
2021/08/15 02:16:31;;;;;;;23.92;9.05;;;14.20;99.90;;;;;;4896948;29;20079;-57
2021/08/15 02:18:56;;;;;;;17.83;9.07;;;14.10;99.90;;;;;;4911319;29;20399;-55
2021/08/15 02:21:22;;;;;;;16.73;9.07;;;14.10;99.90;;;;;;4909091;29;20066;-59
2021/08/15 02:23:47;;;;;;;25.58;8.98;;;14.10;99.90;;;;;;4908823;29;20035;-57
2021/08/15 02:26:13;;;;;;;19.42;10.27;;;14.10;99.90;;;;;;4903202;29;20107;-59
2021/08/15 02:28:39;;;;;;;21.02;9.80;;;14.10;99.90;;;;;;4901082;29;20057;-58
2021/08/15 02:31:04;;;;;;;20.10;8.73;;;14.10;99.90;;;;;;4907327;29;20740;-58
2021/08/15 02:33:30;;;;;;;16.92;9.50;;;14.10;99.90;;;;;;4903541;29;20032;-57
2021/08/15 02:35:56;;;;;;;20.98;9.20;;;14.00;99.90;;;;;;4897272;29;20028;-55
2021/08/15 02:38:23;;;;;;;17.45;8.48;;;14.00;99.90;;;;;;4907387;29;20365;-58
2021/08/15 02:40:48;;;;;;;15.75;9.25;;;13.90;99.90;;;;;;4911893;29;20032;-57
2021/08/15 02:43:14;;;;;;;22.00;10.10;;;13.90;99.90;;;;;;4907899;29;20035;-56
2021/08/15 02:45:39;;;;;;;18.48;9.80;;;13.90;99.90;;;;;;4898594;29;20492;-56
2021/08/15 02:48:05;;;;;;;18.63;9.98;;;13.80;99.90;;;;;;4907647;29;20135;-58
2021/08/15 02:50:31;;;;;;;22.65;8.50;;;13.80;99.90;;;;;;4908929;29;20115;-57
2021/08/15 02:52:56;;;;;;;15.88;9.13;;;13.80;99.90;;;;;;4904687;29;20028;-53
2021/08/15 02:55:22;;;;;;;26.60;10.20;;;13.80;99.90;;;;;;4912541;29;20458;-57
2021/08/15 02:57:48;;;;;;;13.60;8.27;;;13.80;99.90;;;;;;4912700;29;20040;-55
2021/08/15 03:00:13;;;;;;;23.80;10.05;;;13.80;99.90;;;;;;4908703;29;20028;-56
2021/08/15 03:02:40;;;;;;;18.98;9.73;;;13.80;99.90;;;;;;4906844;29;20031;-58
2021/08/15 03:05:06;;;;;;;18.70;8.88;;;13.80;99.90;;;;;;4903751;29;20021;-55
2021/08/15 03:07:32;;;;;;;23.00;10.38;;;13.80;99.90;;;;;;4908874;29;20032;-58
2021/08/15 03:09:57;;;;;;;17.98;9.05;;;13.80;99.90;;;;;;4914521;29;20028;-58
2021/08/15 03:12:23;;;;;;;19.45;8.82;;;13.80;99.90;;;;;;4907129;29;20151;-57
2021/08/15 03:14:49;;;;;;;17.33;9.30;;;13.80;99.90;;;;;;4907201;29;20060;-58
2021/08/15 03:17:14;;;;;;;23.10;11.02;;;13.80;99.90;;;;;;4910291;29;20051;-55
2021/08/15 03:19:40;;;;;;;21.80;10.15;;;13.70;99.90;;;;;;4910606;29;20402;-54
2021/08/15 03:22:07;;;;;;;19.67;9.60;;;13.70;99.90;;;;;;4914028;29;20038;-55
2021/08/15 03:24:33;;;;;;;21.88;10.50;;;13.70;99.90;;;;;;4907485;29;20083;-55
2021/08/15 03:26:59;;;;;;;26.27;11.95;;;13.60;99.90;;;;;;4908739;29;20647;-56
2021/08/15 03:29:25;;;;;;;21.52;12.10;;;13.60;99.90;;;;;;4899191;29;20028;-54
2021/08/15 03:31:50;;;;;;;23.17;11.25;;;13.60;99.90;;;;;;4906513;29;20033;-58
2021/08/15 03:34:19;;;;;;;21.58;11.32;;;13.60;99.90;;;;;;4906691;29;20032;-59
2021/08/15 03:36:46;;;;;;;22.83;10.48;;;13.70;99.90;;;;;;4914243;29;20031;-56
2021/08/15 03:39:12;;;;;;;19.52;11.10;;;13.70;99.90;;;;;;4912487;29;20028;-56
2021/08/15 03:41:38;;;;;;;27.70;12.40;;;13.70;99.90;;;;;;4906981;29;20107;-57
2021/08/15 03:44:03;;;;;;;22.95;11.73;;;13.70;99.90;;;;;;4907963;29;20035;-56
2021/08/15 03:46:29;;;;;;;25.67;12.70;;;13.70;99.90;;;;;;4901164;29;20040;-56
2021/08/15 03:48:55;;;;;;;24.63;11.10;;;13.70;99.90;;;;;;4913140;29;20047;-56
2021/08/15 03:51:20;;;;;;;24.67;12.38;;;13.70;99.90;;;;;;4905181;29;20067;-57
2021/08/15 03:53:46;;;;;;;20.67;12.02;;;13.70;99.90;;;;;;4911087;29;20040;-55
2021/08/15 03:56:11;;;;;;;21.90;12.00;;;13.70;99.90;;;;;;4912499;29;20393;-57
2021/08/15 03:58:37;;;;;;;22.00;12.40;;;13.70;99.90;;;;;;4910276;29;20028;-55
2021/08/15 04:01:03;;;;;;;26.33;12.35;;;13.70;99.90;;;;;;4902991;29;20424;-55
2021/08/15 04:03:28;;;;;;;26.35;13.15;;;13.70;99.90;;;;;;4895897;29;20108;-53
2021/08/15 04:05:56;;;;;;;25.10;12.75;;;13.70;99.90;;;;;;4913405;29;20036;-55
2021/08/15 04:08:22;;;;;;;24.15;11.63;;;13.60;99.90;;;;;;4906466;29;20028;-55
2021/08/15 04:10:48;;;;;;;25.70;13.30;;;13.60;99.90;;;;;;4912377;29;20039;-56
2021/08/15 04:13:14;;;;;;;26.27;14.10;;;13.60;99.90;;;;;;4907343;29;20451;-51
2021/08/15 04:15:39;;;;;;;21.05;12.38;;;13.60;99.90;;;;;;4904624;29;20040;-55
2021/08/15 04:18:05;;;;;;;22.70;11.88;;;13.60;99.90;;;;;;4908320;29;20024;-53
2021/08/15 04:20:31;;;;;;;26.40;12.15;;;13.60;99.90;;;;;;4904953;29;20042;-56
2021/08/15 04:22:56;;;;;;;21.85;10.75;;;13.60;99.90;;;;;;4908517;29;20044;-59
2021/08/15 04:25:22;;;;;;;19.83;10.95;;;13.60;99.90;;;;;;4913695;29;20682;-56
2021/08/15 04:27:47;;;;;;;17.17;10.30;;;13.60;99.90;;;;;;4907336;29;20028;-57
2021/08/15 04:30:13;;;;;;;19.02;11.40;;;13.60;99.90;;;;;;4903421;29;20024;-57
2021/08/15 04:32:39;;;;;;;22.02;10.35;;;13.60;99.90;;;;;;4909301;29;20519;-58
2021/08/15 04:35:05;;;;;;;24.80;10.95;;;13.60;99.90;;;;;;4913685;29;20114;-57
2021/08/15 04:37:31;;;;;;;21.00;11.02;;;13.60;99.90;;;;;;4906233;29;20020;-58
2021/08/15 04:39:57;;;;;;;21.15;11.68;;;13.60;99.90;;;;;;4901622;29;20036;-57
2021/08/15 04:42:22;;;;;;;26.70;11.68;;;13.70;99.90;;;;;;4903949;29;20035;-59
2021/08/15 04:44:48;;;;;;;24.45;11.00;;;13.60;99.90;;;;;;4908045;29;20570;-57
2021/08/15 04:47:14;;;;;;;20.02;10.13;;;13.70;99.90;;;;;;4900490;29;21012;-59
2021/08/15 04:49:39;;;;;;;23.67;11.07;;;13.80;99.90;;;;;;4909718;29;20518;-56
2021/08/15 04:52:05;;;;;;;23.48;10.95;;;13.80;99.90;;;;;;4908150;29;20028;-56
2021/08/15 04:54:31;;;;;;;17.75;10.90;;;13.80;99.90;;;;;;4910591;29;20039;-52
2021/08/15 04:56:59;;;;;;;20.52;11.00;;;13.90;99.90;;;;;;4905735;29;20786;-58
2021/08/15 04:59:25;;;;;;;23.15;11.20;;;14.00;99.90;;;;;;4903473;29;20068;-56
2021/08/15 05:01:52;;;;;;;20.73;11.88;;;14.10;99.90;;;;;;4885780;29;20032;-55
2021/08/15 05:04:17;;;;;;;21.85;11.27;;;14.20;99.90;;;;;;4911095;29;20036;-56
2021/08/15 05:06:43;;;;;;;18.27;10.07;;;14.30;99.90;;;;;;4906084;29;20051;-58
2021/08/15 05:09:09;;;;;;;22.50;10.45;;;14.50;99.90;;;;;;4910627;29;20084;-56
2021/08/15 05:11:34;;;;;;;19.10;10.00;;;14.90;99.90;;;;;;4901381;29;20047;-59
2021/08/15 05:14:00;;;;;;;16.38;9.10;;;15.50;99.90;;;;;;4902486;29;20688;-56
2021/08/15 05:16:26;;;;;;;19.73;8.95;;;16.70;99.90;;;;;;4904826;29;20055;-56
2021/08/15 05:18:51;;;;;;;21.92;9.13;;;18.00;99.90;;;;;;4901623;29;20104;-59
2021/08/15 05:21:17;;;;;;;12.20;7.35;;;19.20;99.90;;;;;;4909831;29;20067;-58
2021/08/15 05:23:43;;;;;;;13.23;7.75;;;19.90;99.90;;;;;;4903542;29;20056;-57
2021/08/15 05:26:09;;;;;;;16.83;7.68;;;20.10;99.90;;;;;;4905855;29;20175;-55
2021/08/15 05:28:34;;;;;;;15.70;7.32;;;20.90;99.90;;;;;;4900485;29;20040;-57
2021/08/15 05:31:01;;;;;;;15.45;7.20;;;21.20;99.90;;;;;;4909387;29;20056;-54
2021/08/15 05:33:27;;;;;;;13.13;6.95;;;21.80;99.90;;;;;;4909004;29;20653;-56
2021/08/15 05:35:52;;;;;;;12.98;6.85;;;22.40;99.90;;;;;;4897983;29;20064;-58
2021/08/15 05:38:18;;;;;;;9.90;7.05;;;22.50;99.40;;;;;;4908626;29;20036;-57
2021/08/15 05:40:44;;;;;;;15.35;7.38;;;22.30;99.50;;;;;;4913544;29;20035;-56
2021/08/15 05:43:10;;;;;;;15.77;7.05;;;22.50;98.20;;;;;;4908549;29;20036;-58
2021/08/15 05:45:37;;;;;;;15.35;7.00;;;22.60;98.20;;;;;;4903734;29;20400;-59
2021/08/15 05:48:04;;;;;;;13.82;6.47;;;22.10;98.80;;;;;;4906808;29;20059;-57
2021/08/15 05:50:30;;;;;;;17.55;7.30;;;21.70;99.00;;;;;;4911546;29;20075;-54
2021/08/15 05:52:55;;;;;;;13.13;7.55;;;21.30;99.90;;;;;;4909206;29;21512;-59
2021/08/15 05:55:21;;;;;;;18.55;7.53;;;21.50;99.60;;;;;;4910004;29;20024;-59
2021/08/15 05:57:47;;;;;;;12.25;6.65;;;21.60;99.90;;;;;;4910623;29;20046;-56
2021/08/15 06:00:13;;;;;;;13.77;6.47;;;21.80;99.40;;;;;;4913064;29;20039;-59
2021/08/15 06:02:38;;;;;;;12.10;6.35;;;22.10;99.10;;;;;;4888097;29;20512;-60
2021/08/15 06:05:04;;;;;;;15.70;7.78;;;22.80;98.50;;;;;;4905333;29;20081;-57
2021/08/15 06:07:30;;;;;;;18.10;7.53;;;23.50;97.50;;;;;;4903564;29;20071;-57
2021/08/15 06:09:55;;;;;;;11.05;5.75;;;23.30;96.60;;;;;;4907665;29;20024;-59
2021/08/15 06:12:21;;;;;;;14.80;6.50;;;23.30;96.90;;;;;;4905750;29;21290;-56
2021/08/15 06:14:46;;;;;;;19.85;6.50;;;22.90;97.10;;;;;;4910474;29;20088;-57
2021/08/15 06:17:12;;;;;;;12.77;7.10;;;23.00;96.70;;;;;;4907768;29;20566;-59
2021/08/15 06:19:38;;;;;;;12.38;6.38;;;23.40;97.20;;;;;;4902654;29;20032;-57
2021/08/15 06:22:03;;;;;;;12.00;6.43;;;24.10;95.70;;;;;;4911889;29;20043;-59
2021/08/15 06:24:29;;;;;;;14.50;6.18;;;24.20;95.80;;;;;;4901582;29;20043;-53
2021/08/15 06:26:55;;;;;;;10.90;5.68;;;25.00;95.40;;;;;;4912684;29;20560;-57
2021/08/15 06:29:21;;;;;;;13.25;6.30;;;25.30;94.80;;;;;;4907612;29;20035;-60
2021/08/15 06:31:46;;;;;;;15.00;6.78;;;25.70;93.50;;;;;;4904334;29;20029;-58
2021/08/15 06:34:12;;;;;;;12.80;6.25;;;25.70;93.40;;;;;;4908426;29;20028;-59
2021/08/15 06:36:38;;;;;;;12.07;6.53;;;26.30;92.20;;;;;;4909113;29;20028;-60
2021/08/15 06:39:05;;;;;;;17.20;6.10;;;26.30;92.30;;;;;;4907249;29;20027;-61
2021/08/15 06:41:31;;;;;;;11.82;6.13;;;27.10;92.20;;;;;;4911771;29;20035;-61
2021/08/15 06:43:57;;;;;;;8.82;5.45;;;28.20;90.30;;;;;;4906126;29;20559;-60
2021/08/15 06:46:22;;;;;;;12.55;5.68;;;28.80;89.10;;;;;;4913186;29;20039;-61
2021/08/15 06:48:49;;;;;;;12.23;6.22;;;28.30;87.60;;;;;;4911419;29;20029;-57
2021/08/15 06:51:15;;;;;;;11.98;5.50;;;29.00;88.10;;;;;;4907430;29;20437;-59
2021/08/15 06:53:40;;;;;;;14.35;6.30;;;29.10;86.20;;;;;;4911902;29;20032;-60
2021/08/15 06:56:08;;;;;;;13.80;6.00;;;28.40;85.20;;;;;;4913098;29;20395;-61
2021/08/15 06:58:34;;;;;;;17.70;6.22;;;28.40;85.80;;;;;;4908387;29;20059;-58
2021/08/15 07:00:59;;;;;;;14.07;5.88;;;27.80;86.10;;;;;;4910928;29;20064;-60
2021/08/15 07:03:25;;;;;;;9.95;5.30;;;27.40;87.30;;;;;;4895593;29;20060;-58
2021/08/15 07:05:50;;;;;;;11.68;5.72;;;27.50;87.20;;;;;;4915552;29;20064;-61
2021/08/15 07:08:17;;;;;;;9.80;5.68;;;27.30;88.80;;;;;;4909679;29;20112;-58
2021/08/15 07:10:42;;;;;;;9.82;5.38;;;26.60;90.00;;;;;;4904933;29;20028;-60
2021/08/15 07:13:08;;;;;;;11.95;6.30;;;26.60;89.80;;;;;;4909508;29;20714;-60
2021/08/15 07:15:34;;;;;;;10.52;5.97;;;26.40;90.30;;;;;;4910670;29;20028;-57
2021/08/15 07:18:00;;;;;;;14.32;7.13;;;26.30;90.50;;;;;;4899684;29;20392;-60
2021/08/15 07:20:26;;;;;;;11.82;6.22;;;26.80;88.50;;;;;;4909734;29;20064;-61
2021/08/15 07:22:52;;;;;;;14.45;6.05;;;27.30;88.90;;;;;;4904271;29;20115;-60
2021/08/15 07:25:19;;;;;;;11.07;5.63;;;27.70;88.50;;;;;;4923549;29;20115;-59
2021/08/15 07:27:46;;;;;;;13.18;5.47;;;28.80;86.30;;;;;;4908981;29;20025;-60
2021/08/15 07:30:12;;;;;;;9.48;5.28;;;29.40;83.20;;;;;;4910797;29;20449;-60
2021/08/15 07:32:54;;;;;;;10.38;4.65;;;29.10;83.10;;;;;;4905712;29;20032;-60
2021/08/15 07:35:21;;;;;;;9.18;4.75;;;29.50;83.00;;;;;;4912247;29;20119;-60
2021/08/15 07:37:46;;;;;;;11.35;4.95;;;29.70;81.60;;;;;;4906830;29;20021;-60
2021/08/15 07:40:12;;;;;;;9.85;5.53;;;30.10;82.10;;;;;;4911017;29;20099;-60
2021/08/15 07:42:38;;;;;;;10.70;5.22;;;30.00;81.40;;;;;;4909980;29;20523;-60
2021/08/15 07:45:05;;;;;;;10.43;4.85;;;30.00;80.80;;;;;;4906183;29;20135;-59
2021/08/15 07:47:30;;;;;;;9.43;4.35;;;30.90;79.70;;;;;;4900903;29;20083;-60
2021/08/15 07:49:56;;;;;;;11.48;4.82;;;31.70;79.30;;;;;;4905537;29;20039;-59
2021/08/15 07:52:21;;;;;;;8.93;4.90;;;31.10;79.80;;;;;;4907082;29;20040;-61
2021/08/15 07:54:47;;;;;;;7.82;4.68;;;30.80;78.30;;;;;;4911780;29;20040;-60
2021/08/15 07:57:13;;;;;;;11.18;4.78;;;31.20;77.40;;;;;;4905198;29;20615;-58
2021/08/15 07:59:38;;;;;;;10.85;5.63;;;30.80;77.90;;;;;;4903289;29;20476;-55
2021/08/15 08:02:04;;;;;;;7.40;4.85;;;30.10;79.20;;;;;;4906215;29;20112;-60
2021/08/15 08:04:29;;;;;;;10.02;4.32;;;29.00;82.00;;;;;;4897600;29;20060;-58
2021/08/15 08:06:57;;;;;;;7.88;4.70;;;30.30;81.00;;;;;;4905466;29;20033;-58
2021/08/15 08:09:22;;;;;;;8.73;5.10;;;30.50;78.70;;;;;;4906045;29;20028;-58
2021/08/15 08:11:49;;;;;;;7.72;4.00;;;30.00;79.60;;;;;;4904981;29;20035;-61
2021/08/15 08:14:15;;;;;;;9.07;4.90;;;28.90;82.40;;;;;;4909335;29;20024;-58
2021/08/15 08:16:40;;;;;;;11.18;4.25;;;29.00;83.60;;;;;;4908900;29;20084;-57
2021/08/15 08:19:06;;;;;;;10.32;4.65;;;29.40;84.20;;;;;;4907810;29;20036;-61
2021/08/15 08:21:32;;;;;;;10.77;4.28;;;29.20;81.60;;;;;;4903293;29;20032;-60
2021/08/15 08:23:57;;;;;;;9.65;5.45;;;29.40;82.80;;;;;;4908555;29;20035;-58
2021/08/15 08:26:23;;;;;;;7.88;4.30;;;29.10;82.60;;;;;;4913558;29;20016;-57
2021/08/15 08:28:48;;;;;;;7.63;4.82;;;28.30;83.40;;;;;;4904225;29;20083;-58
2021/08/15 08:31:14;;;;;;;7.15;3.85;;;28.60;84.60;;;;;;4904570;29;20028;-57
2021/08/15 08:33:40;;;;;;;8.88;3.85;;;29.20;83.50;;;;;;4910365;29;20036;-52
2021/08/15 08:36:05;;;;;;;7.68;4.15;;;28.60;83.20;;;;;;4911722;29;20566;-60
2021/08/15 08:38:32;;;;;;;7.03;3.95;;;28.60;84.80;;;;;;4903234;29;20032;-59
2021/08/15 08:40:58;;;;;;;8.70;3.78;;;29.00;84.70;;;;;;4907770;29;20028;-60
2021/08/15 08:43:24;;;;;;;10.88;4.00;;;28.70;84.80;;;;;;4903323;29;20036;-58
2021/08/15 08:45:52;;;;;;;6.85;3.83;;;28.50;84.50;;;;;;4904594;29;20040;-59
2021/08/15 08:48:18;;;;;;;6.20;3.08;;;29.10;85.60;;;;;;4906671;29;20039;-58
2021/08/15 08:50:44;;;;;;;11.10;3.85;;;30.20;82.10;;;;;;4908299;29;20029;-61
2021/08/15 08:53:10;;;;;;;6.93;3.70;;;30.50;82.30;;;;;;4901427;29;20120;-59
2021/08/15 08:55:35;;;;;;;7.32;3.70;;;31.60;80.80;;;;;;4910785;29;20043;-61
2021/08/15 08:58:01;;;;;;;6.22;3.50;;;31.50;79.50;;;;;;4909208;29;20040;-61
2021/08/15 09:00:26;;;;;;;7.72;4.00;;;32.10;77.10;;;;;;4906071;29;20045;-60
2021/08/15 09:02:57;;;;;;;8.05;3.25;;;31.90;75.60;;;;;;4893382;29;20223;-59
2021/08/15 09:05:31;;;;;;;6.18;3.88;;;31.70;76.50;;;;;;4912277;29;20148;-59
2021/08/15 09:07:57;;;;;;;5.28;3.05;;;32.00;76.50;;;;;;4908842;29;20368;-61
2021/08/15 09:10:31;;;;;;;9.15;3.95;;;32.20;74.80;;;;;;4904838;29;20061;-59
2021/08/15 09:13:02;;;;;;;11.63;3.55;;;32.50;76.50;;;;;;4908685;29;20510;-60
2021/08/15 09:15:27;;;;;;;6.93;3.30;;;31.80;77.10;;;;;;4907038;29;20044;-60
2021/08/15 09:17:54;;;;;;;9.02;3.38;;;31.30;78.80;;;;;;4908773;29;20111;-58
2021/08/15 09:20:35;;;;;;;10.25;4.10;;;31.00;78.50;;;;;;4912189;29;20107;-59
2021/08/15 09:23:17;;;;;;;8.02;3.17;;;31.00;78.60;;;;;;4900333;29;20032;-60
2021/08/15 09:25:43;;;;;;;6.03;3.28;;;31.20;78.20;;;;;;4907603;29;20036;-58
2021/08/15 09:28:08;;;;;;;6.65;3.40;;;31.40;76.60;;;;;;4912592;29;20417;-59
2021/08/15 09:30:34;;;;;;;6.75;2.97;;;31.40;76.30;;;;;;4904317;29;20068;-61
2021/08/15 09:33:08;;;;;;;10.68;3.45;;;32.20;76.00;;;;;;4908790;29;20099;-57
2021/08/15 09:35:36;;;;;;;7.07;2.50;;;33.60;74.10;;;;;;4898751;29;20052;-59
2021/08/15 09:38:07;;;;;;;5.80;3.08;;;33.50;72.20;;;;;;4906554;29;20024;-59
2021/08/15 09:40:43;;;;;;;7.53;3.13;;;33.70;71.50;;;;;;4905474;29;20036;-60
2021/08/15 09:43:11;;;;;;;8.45;3.55;;;34.30;70.00;;;;;;4908449;29;20036;-59
2021/08/15 09:45:45;;;;;;;4.80;3.05;;;33.70;71.30;;;;;;4902743;29;20036;-61
2021/08/15 09:48:30;;;;;;;5.22;3.20;;;34.10;70.70;;;;;;4906119;29;20487;-59
2021/08/15 09:51:07;;;;;;;6.22;3.00;;;34.50;69.50;;;;;;4900974;29;20056;-57
2021/08/15 09:53:40;;;;;;;5.40;3.13;;;34.50;67.40;;;;;;4909025;29;20073;-57
2021/08/15 09:56:06;;;;;;;5.50;3.00;;;34.70;67.80;;;;;;4907854;29;20036;-58
2021/08/15 09:58:32;;;;;;;5.18;2.65;;;34.70;70.20;;;;;;4903785;29;20032;-53
2021/08/15 10:01:01;;;;;;;6.75;3.33;;;35.10;69.00;;;;;;4904596;29;20456;-56
2021/08/15 10:03:27;;;;;;;5.00;2.92;;;34.80;67.80;;;;;;4888617;29;20044;-56
2021/08/15 10:05:55;;;;;;;6.47;2.72;;;34.10;68.40;;;;;;4902358;29;20070;-56
2021/08/15 10:08:21;;;;;;;9.52;2.92;;;34.30;70.00;;;;;;4908517;29;20693;-54
2021/08/15 10:10:48;;;;;;;8.65;3.38;;;33.30;67.80;;;;;;4904905;29;20032;-56
2021/08/15 10:13:17;;;;;;;7.28;3.28;;;32.80;67.90;;;;;;4906998;29;20016;-59
2021/08/15 10:15:51;;;;;;;6.53;3.15;;;32.60;70.50;;;;;;4913297;29;20016;-60
2021/08/15 10:18:20;;;;;;;5.57;3.10;;;32.40;71.20;;;;;;4893122;29;20043;-61
2021/08/15 10:20:48;;;;;;;5.05;2.90;;;32.80;70.70;;;;;;4908347;29;20055;-60
2021/08/15 10:23:14;;;;;;;10.68;2.85;;;32.90;69.20;;;;;;4904665;29;20032;-59
2021/08/15 10:25:44;;;;;;;7.28;2.83;;;33.10;71.40;;;;;;4926748;29;20474;-58
2021/08/15 10:28:40;;;;;;;5.63;3.33;;;33.10;68.70;;;;;;4909714;29;20519;-59
2021/08/15 10:31:05;;;;;;;6.68;3.00;;;32.60;70.40;;;;;;4909076;29;20115;-58
2021/08/15 10:33:34;;;;;;;7.65;2.42;;;32.10;69.60;;;;;;4894106;29;20028;-61
2021/08/15 10:36:19;;;;;;;5.32;2.80;;;31.70;70.20;;;;;;4909830;29;20082;-57
2021/08/15 10:38:46;;;;;;;5.55;3.00;;;30.80;70.70;;;;;;4908482;29;20364;-59
2021/08/15 10:41:12;;;;;;;7.55;2.78;;;30.60;72.30;;;;;;4914684;29;20454;-60
2021/08/15 10:43:37;;;;;;;6.65;2.80;;;30.50;74.80;;;;;;4906345;29;20107;-58
2021/08/15 10:46:22;;;;;;;4.88;2.30;;;30.50;74.90;;;;;;4902763;29;20492;-56
2021/08/15 10:48:52;;;;;;;6.28;2.40;;;30.30;74.40;;;;;;4904417;29;20032;-58
2021/08/15 10:51:36;;;;;;;8.05;2.85;;;30.40;74.80;;;;;;4907746;29;20020;-58
2021/08/15 10:54:02;;;;;;;8.85;3.10;;;30.60;73.70;;;;;;4911474;29;20116;-58
2021/08/15 10:57:00;;;;;;;6.50;3.03;;;30.70;74.70;;;;;;4911395;29;20106;-58
2021/08/15 10:59:36;;;;;;;8.85;2.60;;;30.80;75.30;;;;;;4911526;29;20103;-60
2021/08/15 11:02:19;;;;;;;6.95;2.80;;;31.40;71.20;;;;;;4903279;29;20026;-59
2021/08/15 11:05:02;;;;;;;5.80;2.55;;;32.00;72.30;;;;;;4893828;29;20432;-59
2021/08/15 11:07:40;;;;;;;5.28;2.58;;;32.00;71.00;;;;;;4901133;29;20035;-61
2021/08/15 11:10:09;;;;;;;7.05;3.20;;;31.60;67.50;;;;;;4909291;29;20032;-61
2021/08/15 11:12:35;;;;;;;4.45;2.42;;;31.40;70.70;;;;;;4910953;29;20032;-57
2021/08/15 11:15:02;;;;;;;8.13;2.65;;;31.40;70.90;;;;;;4909404;29;20462;-58
2021/08/15 11:17:29;;;;;;;4.72;2.15;;;30.90;71.80;;;;;;4906958;29;20103;-61
2021/08/15 11:19:55;;;;;;;6.82;2.63;;;30.70;70.70;;;;;;4902281;29;20384;-58
2021/08/15 11:22:21;;;;;;;7.60;2.70;;;30.20;72.00;;;;;;4910411;29;20028;-57
2021/08/15 11:25:03;;;;;;;10.43;2.47;;;29.50;74.20;;;;;;4907604;29;20043;-57
2021/08/15 11:27:35;;;;;;;6.00;2.42;;;29.50;74.40;;;;;;4905362;29;20172;-58
2021/08/15 11:30:07;;;;;;;3.97;2.65;;;29.50;73.10;;;;;;4908102;29;20102;-59
2021/08/15 11:32:33;;;;;;;6.43;2.60;;;29.50;74.40;;;;;;4906076;29;20062;-57
2021/08/15 11:35:09;;;;;;;3.65;2.20;;;29.60;75.10;;;;;;4909663;29;20028;-60
2021/08/15 11:37:53;;;;;;;3.47;2.00;;;29.30;73.50;;;;;;4907023;29;20148;-57
2021/08/15 11:40:26;;;;;;;7.05;2.70;;;29.70;75.00;;;;;;4902148;29;20036;-59
2021/08/15 11:43:06;;;;;;;;;;;29.80;75.10;;;;;;4902168;29;20021;-58
2021/08/15 11:45:42;;;;;;;5.55;2.30;;;29.70;73.70;;;;;;4904511;29;19914;-58
2021/08/15 11:48:10;;;;;;;5.85;2.38;;;29.80;74.30;;;;;;4909424;29;20071;-58
2021/08/15 11:50:38;;;;;;;8.27;2.63;;;29.70;74.00;;;;;;4907007;29;20107;-59
2021/08/15 11:53:35;;;;;;;7.63;2.55;;;29.60;73.70;;;;;;4905116;29;20028;-59
2021/08/15 11:56:11;;;;;;;7.40;3.03;;;29.80;74.00;;;;;;4905788;29;20024;-61
2021/08/15 11:58:44;;;;;;;3.33;2.50;;;29.60;76.20;;;;;;4903518;29;20036;-60
2021/08/15 12:01:10;;;;;;;5.72;2.45;;;29.60;74.90;;;;;;4904691;29;20020;-59
2021/08/15 12:03:35;;;;;;;6.07;2.15;;;29.70;73.90;;;;;;4894597;29;20048;-59
2021/08/15 12:06:08;;;;;;;7.57;2.25;;;29.80;74.30;;;;;;4905290;29;20029;-57
2021/08/15 12:08:39;;;;;;;6.45;2.78;;;29.90;73.60;;;;;;4905318;29;20036;-56
2021/08/15 12:11:30;;;;;;;4.10;2.60;;;29.80;73.20;;;;;;4915121;29;20168;-58
2021/08/15 12:14:08;;;;;;;4.63;2.30;;;29.70;72.30;;;;;;4906953;29;20012;-59
2021/08/15 12:16:35;;;;;;;9.25;2.40;;;29.70;73.30;;;;;;4910480;29;20036;-55
2021/08/15 12:19:01;;;;;;;3.72;2.35;;;29.60;74.60;;;;;;4905483;29;20072;-57
2021/08/15 12:21:35;;;;;;;8.00;2.03;;;29.80;71.80;;;;;;4910873;29;20028;-57
2021/08/15 12:24:14;;;;;;;7.10;2.05;;;29.60;72.00;;;;;;4904034;29;20512;-59
2021/08/15 12:26:52;;;;;;;5.78;2.50;;;29.50;71.90;;;;;;4907293;29;20577;-59
2021/08/15 12:29:20;;;;;;;3.35;2.30;;;29.50;73.20;;;;;;4899013;29;20033;-58
2021/08/15 12:32:19;;;;;;;3.60;2.08;;;29.40;74.40;;;;;;4901815;29;20047;-52
2021/08/15 12:34:45;;;;;;;4.43;2.13;;;29.40;73.30;;;;;;4914527;29;20508;-57
2021/08/15 12:37:15;;;;;;;7.75;1.98;;;29.40;73.50;;;;;;4901490;29;20107;-58
2021/08/15 12:39:43;;;;;;;3.47;2.10;;;29.50;74.50;;;;;;4900111;29;20484;-57
2021/08/15 12:42:20;;;;;;;4.95;2.33;;;29.70;70.50;;;;;;4895358;29;20074;-58